createdAt,value
2023-02-18T00:00:31.846Z,101606.22
2023-02-18T00:02:58.014Z,101590.63
2023-02-18T00:05:24.217Z,101601.22
2023-02-18T00:07:50.424Z,101601.09
2023-02-18T00:10:16.627Z,101598.44
2023-02-18T00:12:42.771Z,101591.38
2023-02-18T00:15:08.918Z,101594.78
2023-02-18T00:17:35.047Z,101581.88
2023-02-18T00:20:01.229Z,101591.38
2023-02-18T00:22:27.396Z,101600.13
2023-02-18T00:24:53.519Z,101595.69
2023-02-18T00:27:19.725Z,101588.69
2023-02-18T00:29:45.874Z,101598.94
2023-02-18T00:32:12.113Z,101595.56
2023-02-18T00:34:38.309Z,101593.19
2023-02-18T00:37:04.483Z,101586.22
2023-02-18T00:39:30.700Z,101581.88
2023-02-18T00:41:56.904Z,101577.50
2023-02-18T00:44:23.042Z,101579.25
2023-02-18T00:46:49.230Z,101581.00
2023-02-18T00:49:15.409Z,101573.91
2023-02-18T00:51:41.537Z,101578.06
2023-02-18T00:54:07.735Z,101580.56
2023-02-18T00:56:33.868Z,101591.03
2023-02-18T00:59:00.009Z,101581.38
2023-02-18T01:01:26.249Z,101577.75
2023-02-18T01:03:52.430Z,101575.22
2023-02-18T01:06:18.556Z,101579.38
2023-02-18T01:08:44.677Z,101573.28
2023-02-18T01:11:10.913Z,101567.28
2023-02-18T01:13:37.091Z,101564.75
2023-02-18T01:16:03.320Z,101570.97
2023-02-18T01:18:29.464Z,101563.84
2023-02-18T01:20:55.619Z,101566.53
2023-02-18T01:23:21.831Z,101565.78
2023-02-18T01:25:47.982Z,101560.50
2023-02-18T01:28:14.158Z,101562.09
2023-02-18T01:30:40.339Z,101571.03
2023-02-18T01:33:06.527Z,101561.44
2023-02-18T01:35:32.651Z,101573.53
2023-02-18T01:37:58.775Z,101573.63
2023-02-18T01:40:24.958Z,101571.03
2023-02-18T01:42:51.091Z,101563.34
2023-02-18T01:45:17.292Z,101570.09
2023-02-18T01:47:43.413Z,101559.88
2023-02-18T01:50:09.567Z,101558.16
2023-02-18T01:52:35.756Z,101573.63
2023-02-18T01:55:01.981Z,101567.78
2023-02-18T01:57:28.182Z,101561.78
2023-02-18T01:59:54.319Z,101549.59
2023-02-18T02:02:20.478Z,101553.19
2023-02-18T02:04:46.636Z,101561.06
2023-02-18T02:07:12.814Z,101551.59
2023-02-18T02:09:38.985Z,101538.91
2023-02-18T02:12:05.167Z,101545.47
2023-02-18T02:14:31.321Z,101551.59
2023-02-18T02:16:57.440Z,101550.75
2023-02-18T02:19:23.617Z,101541.13
2023-02-18T02:21:49.766Z,101535.91
2023-02-18T02:24:15.888Z,101530.72
2023-02-18T02:26:42.056Z,101528.09
2023-02-18T02:29:10.436Z,101533.34
2023-02-18T02:31:36.595Z,101541.06
2023-02-18T02:34:02.790Z,101526.97
2023-02-18T02:36:29.014Z,101527.59
2023-02-18T02:38:55.208Z,101522.44
2023-02-18T02:41:21.371Z,101519.94
2023-02-18T02:43:47.568Z,101508.00
2023-02-18T02:46:13.801Z,101497.25
2023-02-18T02:48:39.971Z,101500.88
2023-02-18T02:51:06.135Z,101485.25
2023-02-18T02:53:32.256Z,101494.72
2023-02-18T02:55:58.397Z,101490.25
2023-02-18T02:58:24.532Z,101487.06
2023-02-18T03:00:50.695Z,101484.13
2023-02-18T03:03:16.931Z,101484.00
2023-02-18T03:05:43.141Z,101485.13
2023-02-18T03:08:09.322Z,101495.59
2023-02-18T03:10:35.498Z,101489.44
2023-02-18T03:13:01.696Z,101480.63
2023-02-18T03:15:27.869Z,101491.72
2023-02-18T03:17:54.046Z,101484.81
2023-02-18T03:20:20.258Z,101487.34
2023-02-18T03:22:46.399Z,101486.63
2023-02-18T03:25:12.555Z,101491.78
2023-02-18T03:27:38.683Z,101490.03
2023-02-18T03:30:05.030Z,101480.47
2023-02-18T03:32:31.201Z,101478.56
2023-02-18T03:34:57.366Z,101480.34
2023-02-18T03:37:23.518Z,101479.63
2023-02-18T03:39:49.689Z,101489.22
2023-02-18T03:42:15.815Z,101483.88
2023-02-18T03:44:42.011Z,101482.19
2023-02-18T03:47:08.154Z,101479.63
2023-02-18T03:49:34.274Z,101475.09
2023-02-18T03:52:00.458Z,101473.41
2023-02-18T03:54:26.636Z,101478.53
2023-02-18T03:56:52.761Z,101487.47
2023-02-18T03:59:21.848Z,101486.44
2023-02-18T04:01:48.044Z,101491.44
2023-02-18T04:04:14.219Z,101491.47
2023-02-18T04:06:40.411Z,101489.84
2023-02-18T04:09:06.539Z,101478.63
2023-02-18T04:11:32.762Z,101481.38
2023-02-18T04:13:58.911Z,101485.63
2023-02-18T04:16:25.069Z,101491.72
2023-02-18T04:18:51.279Z,101496.84
2023-02-18T04:21:17.398Z,101493.25
2023-02-18T04:23:43.555Z,101497.75
2023-02-18T04:26:09.986Z,101514.53
2023-02-18T04:28:36.418Z,101501.50
2023-02-18T04:31:02.671Z,101501.56
2023-02-18T04:33:28.914Z,101489.56
2023-02-18T04:35:55.084Z,101497.66
2023-02-18T04:38:21.294Z,101503.44
2023-02-18T04:40:47.434Z,101508.63
2023-02-18T04:43:13.546Z,101491.03
2023-02-18T04:45:39.780Z,101497.94
2023-02-18T04:48:05.940Z,101495.31
2023-02-18T04:50:32.080Z,101488.91
2023-02-18T04:52:58.284Z,101491.47
2023-02-18T04:55:24.441Z,101492.34
2023-02-18T04:57:50.577Z,101488.91
2023-02-18T05:00:16.741Z,101496.63
2023-02-18T05:02:43.013Z,101491.44
2023-02-18T05:05:09.160Z,101494.22
2023-02-18T05:07:35.360Z,101485.63
2023-02-18T05:10:01.590Z,101486.50
2023-02-18T05:12:27.816Z,101485.81
2023-02-18T05:14:55.083Z,101480.88
2023-02-18T05:17:21.248Z,101488.19
2023-02-18T05:19:47.418Z,101490.28
2023-02-18T05:22:13.605Z,101487.50
2023-02-18T05:24:39.779Z,101487.41
2023-02-18T05:27:05.970Z,101479.41
2023-02-18T05:29:32.154Z,101479.34
2023-02-18T05:31:58.344Z,101473.06
2023-02-18T05:34:24.508Z,101476.66
2023-02-18T05:36:50.719Z,101480.34
2023-02-18T05:39:16.898Z,101483.03
2023-02-18T05:41:43.055Z,101469.88
2023-02-18T05:44:09.200Z,101467.19
2023-02-18T05:46:35.425Z,101468.94
2023-02-18T05:49:01.574Z,101469.09
2023-02-18T05:51:27.714Z,101479.91
2023-02-18T05:53:53.915Z,101486.13
2023-02-18T05:56:21.247Z,101484.19
2023-02-18T05:58:47.405Z,101473.00
2023-02-18T06:01:13.592Z,101466.94
2023-02-18T06:03:39.722Z,101471.13
2023-02-18T06:06:05.985Z,101474.91
2023-02-18T06:08:32.283Z,101470.78
2023-02-18T06:10:58.475Z,101471.00
2023-02-18T06:13:24.611Z,101470.97
2023-02-18T06:15:50.859Z,101466.91
2023-02-18T06:18:17.009Z,101459.06
2023-02-18T06:20:43.132Z,101452.91
2023-02-18T06:23:11.591Z,101453.22
2023-02-18T06:25:37.865Z,101453.28
2023-02-18T06:28:04.030Z,101453.16
2023-02-18T06:30:30.264Z,101454.84
2023-02-18T06:32:56.434Z,101450.69
2023-02-18T06:35:22.613Z,101448.81
2023-02-18T06:37:48.742Z,101450.31
2023-02-18T06:40:14.916Z,101455.03
2023-02-18T06:42:41.092Z,101443.75
2023-02-18T06:45:07.211Z,101436.66
2023-02-18T06:47:33.372Z,101435.41
2023-02-18T06:49:59.550Z,101436.38
2023-02-18T06:52:25.711Z,101431.19
2023-02-18T06:54:51.843Z,101426.78
2023-02-18T06:57:17.964Z,101425.69
2023-02-18T06:59:44.147Z,101411.53
2023-02-18T07:02:10.311Z,101416.75
2023-02-18T07:04:36.485Z,101423.84
2023-02-18T07:07:02.646Z,101425.59
2023-02-18T07:09:28.776Z,101421.28
2023-02-18T07:11:54.966Z,101421.19
2023-02-18T07:14:21.129Z,101418.53
2023-02-18T07:16:47.385Z,101417.84
2023-02-18T07:19:14.899Z,101423.09
2023-02-18T07:21:41.294Z,101427.03
2023-02-18T07:24:07.441Z,101418.50
2023-02-18T07:26:33.591Z,101415.94
2023-02-18T07:28:59.707Z,101416.75
2023-02-18T07:31:26.018Z,101411.59
2023-02-18T07:33:52.342Z,101409.72
2023-02-18T07:36:18.504Z,101412.41
2023-02-18T07:38:44.739Z,101403.69
2023-02-18T07:41:10.905Z,101400.69
2023-02-18T07:43:37.056Z,101403.81
2023-02-18T07:46:03.218Z,101397.75
2023-02-18T07:48:29.392Z,101387.13
2023-02-18T07:50:55.558Z,101387.69
2023-02-18T07:53:21.708Z,101398.09
2023-02-18T07:55:47.910Z,101393.47
2023-02-18T07:58:14.083Z,101400.63
2023-02-18T08:00:40.248Z,101394.97
2023-02-18T08:03:06.419Z,101389.06
2023-02-18T08:05:32.568Z,101394.38
2023-02-18T08:07:58.694Z,101392.13
2023-02-18T08:10:24.848Z,101397.78
2023-02-18T08:12:51.039Z,101396.38
2023-02-18T08:15:17.217Z,101392.41
2023-02-18T08:17:43.351Z,101393.97
2023-02-18T08:20:09.507Z,101396.72
2023-02-18T08:22:35.651Z,101399.59
2023-02-18T08:25:01.805Z,101390.59
2023-02-18T08:27:28.023Z,101388.03
2023-02-18T08:29:54.166Z,101385.22
2023-02-18T08:32:20.315Z,101385.09
2023-02-18T08:34:46.471Z,101387.44
2023-02-18T08:37:12.628Z,101385.75
2023-02-18T08:39:39.891Z,101375.00
2023-02-18T08:42:06.227Z,101372.13
2023-02-18T08:48:13.671Z,101372.78
2023-02-18T08:50:20.794Z,101374.22
2023-02-18T08:52:46.985Z,101379.19
2023-02-18T08:55:15.071Z,101371.41
2023-02-18T08:57:41.260Z,101370.41
2023-02-18T09:00:07.462Z,101369.22
2023-02-18T09:02:33.622Z,101355.31
2023-02-18T09:04:59.812Z,101356.06
2023-02-18T09:07:25.971Z,101351.69
2023-02-18T09:09:52.117Z,101354.75
2023-02-18T09:12:18.261Z,101351.09
2023-02-18T09:14:44.417Z,101357.28
2023-02-18T09:17:10.622Z,101352.53
2023-02-18T09:19:36.754Z,101363.00
2023-02-18T09:22:02.998Z,101362.00
2023-02-18T09:24:29.208Z,101364.84
2023-02-18T09:26:55.360Z,101367.00
2023-02-18T09:29:21.557Z,101372.03
2023-02-18T09:31:47.850Z,101378.06
2023-02-18T09:34:14.051Z,101370.31
2023-02-18T09:36:40.183Z,101368.47
2023-02-18T09:39:06.367Z,101367.97
2023-02-18T09:41:32.543Z,101370.44
2023-02-18T09:43:58.645Z,101368.31
2023-02-18T09:46:24.795Z,101370.84
2023-02-18T09:48:50.944Z,101366.91
2023-02-18T09:51:17.092Z,101369.22
2023-02-18T09:53:43.237Z,101360.34
2023-02-18T09:56:09.375Z,101370.63
2023-02-18T09:58:35.588Z,101360.78
2023-02-18T10:01:01.789Z,101368.44
2023-02-18T10:03:27.966Z,101359.56
2023-02-18T10:05:54.090Z,101358.66
2023-02-18T10:08:20.219Z,101363.47
2023-02-18T10:10:46.391Z,101368.66
2023-02-18T10:13:12.565Z,101377.88
2023-02-18T10:15:38.825Z,101373.44
2023-02-18T10:18:04.971Z,101361.84
2023-02-18T10:20:31.168Z,101360.91
2023-02-18T10:22:57.338Z,101364.59
2023-02-18T10:25:23.485Z,101367.31
2023-02-18T10:27:49.650Z,101363.19
2023-02-18T10:30:15.939Z,101371.75
2023-02-18T10:32:42.182Z,101367.53
2023-02-18T10:35:08.375Z,101367.31
2023-02-18T10:40:24.485Z,101356.50
2023-02-18T10:42:50.654Z,101357.22
2023-02-18T10:45:16.824Z,101357.94
2023-02-18T10:47:42.936Z,101361.13
2023-02-18T10:50:09.144Z,101358.50
2023-02-18T10:52:37.631Z,101357.78
2023-02-18T10:55:03.793Z,101355.81
2023-02-18T10:57:29.982Z,101360.34
2023-02-18T10:59:56.171Z,101359.38
2023-02-18T11:02:22.353Z,101369.22
2023-02-18T11:04:49.578Z,101364.16
2023-02-18T11:07:15.794Z,101356.28
2023-02-18T11:09:41.933Z,101352.19
2023-02-18T11:12:09.194Z,101366.75
2023-02-18T11:14:35.535Z,101365.16
2023-02-18T11:17:01.707Z,101365.41
2023-02-18T11:19:27.906Z,101363.66
2023-02-18T11:21:54.058Z,101362.84
2023-02-18T11:24:20.235Z,101359.50
2023-02-18T11:26:46.351Z,101351.72
2023-02-18T11:29:12.509Z,101357.94
2023-02-18T11:31:38.729Z,101360.84
2023-02-18T11:34:04.929Z,101351.06
2023-02-18T11:36:32.915Z,101354.97
2023-02-18T11:38:59.313Z,101362.19
2023-02-18T11:41:25.502Z,101365.09
2023-02-18T11:43:51.632Z,101353.81
2023-02-18T11:46:17.836Z,101348.72
2023-02-18T11:48:43.998Z,101348.63
2023-02-18T11:51:10.388Z,101343.19
2023-02-18T11:53:36.808Z,101340.06
2023-02-18T11:56:02.974Z,101338.53
2023-02-18T11:58:31.185Z,101333.38
2023-02-18T12:00:57.378Z,101334.81
2023-02-18T12:03:23.561Z,101322.81
2023-02-18T12:05:49.761Z,101321.63
2023-02-18T12:08:15.931Z,101313.31
2023-02-18T12:10:42.249Z,101306.28
2023-02-18T12:13:08.402Z,101311.63
2023-02-18T12:15:34.525Z,101313.41
2023-02-18T12:18:00.708Z,101303.34
2023-02-18T12:20:26.869Z,101296.94
2023-02-18T12:22:52.994Z,101301.13
2023-02-18T12:25:19.186Z,101293.34
2023-02-18T12:27:45.326Z,101287.22
2023-02-18T12:30:11.521Z,101288.25
2023-02-18T12:32:37.699Z,101295.03
2023-02-18T12:35:03.876Z,101282.28
2023-02-18T12:37:30.075Z,101278.03
2023-02-18T12:39:56.221Z,101285.03
2023-02-18T12:42:22.354Z,101284.28
2023-02-18T12:44:48.564Z,101271.66
2023-02-18T12:47:14.755Z,101280.66
2023-02-18T12:49:40.962Z,101278.41
2023-02-18T12:52:07.098Z,101268.34
2023-02-18T12:54:33.278Z,101277.78
2023-02-18T12:56:59.426Z,101274.19
2023-02-18T12:59:25.584Z,101265.25
2023-02-18T13:01:51.837Z,101268.88
2023-02-18T13:04:18.015Z,101269.66
2023-02-18T13:06:46.004Z,101263.09
2023-02-18T13:09:12.196Z,101262.19
2023-02-18T13:11:38.384Z,101256.22
2023-02-18T13:14:04.609Z,101267.56
2023-02-18T13:16:31.188Z,101262.91
2023-02-18T13:18:57.368Z,101256.25
2023-02-18T13:21:23.564Z,101258.00
2023-02-18T13:23:49.763Z,101248.38
2023-02-18T13:26:15.882Z,101249.59
2023-02-18T13:28:42.118Z,101260.81
2023-02-18T13:31:08.803Z,101241.69
2023-02-18T13:33:35.220Z,101247.66
2023-02-18T13:36:01.421Z,101249.56
2023-02-18T13:38:27.579Z,101248.28
2023-02-18T13:40:53.782Z,101245.13
2023-02-18T13:43:19.905Z,101237.34
2023-02-18T13:45:46.236Z,101238.28
2023-02-18T13:48:12.417Z,101233.94
2023-02-18T13:50:38.573Z,101231.44
2023-02-18T13:53:04.739Z,101233.09
2023-02-18T13:55:30.902Z,101221.66
2023-02-18T13:57:57.032Z,101225.59
2023-02-18T14:00:23.191Z,101226.75
2023-02-18T14:02:49.431Z,101233.06
2023-02-18T14:05:15.658Z,101237.19
2023-02-18T14:07:41.847Z,101229.78
2023-02-18T14:10:07.990Z,101237.66
2023-02-18T14:12:40.405Z,101243.84
2023-02-18T14:15:06.540Z,101240.66
2023-02-18T14:17:32.758Z,101240.25
2023-02-18T14:19:58.942Z,101244.81
2023-02-18T14:22:25.118Z,101241.34
2023-02-18T14:24:51.318Z,101249.97
2023-02-18T14:27:17.511Z,101253.81
2023-02-18T14:29:43.734Z,101248.00
2023-02-18T14:32:10.027Z,101233.19
2023-02-18T14:34:36.299Z,101239.34
2023-02-18T14:37:02.438Z,101250.72
2023-02-18T14:39:28.574Z,101240.50
2023-02-18T14:41:55.941Z,101238.38
2023-02-18T14:44:22.112Z,101232.06
2023-02-18T14:46:48.311Z,101237.03
2023-02-18T14:49:14.481Z,101245.97
2023-02-18T14:51:40.645Z,101240.88
2023-02-18T14:54:06.943Z,101250.78
2023-02-18T14:56:33.140Z,101240.63
2023-02-18T14:58:59.340Z,101245.13
2023-02-18T15:01:27.019Z,101245.13
2023-02-18T15:03:53.253Z,101254.53
2023-02-18T15:06:19.392Z,101248.56
2023-02-18T15:08:45.928Z,101247.69
2023-02-18T15:11:12.070Z,101250.22
2023-02-18T15:13:38.247Z,101241.88
2023-02-18T15:16:04.451Z,101250.50
2023-02-18T15:18:30.587Z,101260.41
2023-02-18T15:20:56.796Z,101237.03
2023-02-18T15:23:23.059Z,101254.59
2023-02-18T15:25:50.808Z,101255.84
2023-02-18T15:28:16.998Z,101247.50
2023-02-18T15:30:43.165Z,101257.19
2023-02-18T15:33:09.355Z,101268.59
2023-02-18T15:35:35.578Z,101260.88
2023-02-18T15:38:01.748Z,101268.09
2023-02-18T15:40:27.871Z,101269.84
2023-02-18T15:42:54.170Z,101255.19
2023-02-18T15:45:27.841Z,101265.84
2023-02-18T15:47:53.990Z,101280.94
2023-02-18T15:50:20.325Z,101274.09
2023-02-18T15:52:52.481Z,101276.00
2023-02-18T15:55:19.455Z,101268.19
2023-02-18T15:57:45.908Z,101271.84
2023-02-18T16:00:19.508Z,101273.69
2023-02-18T16:02:45.701Z,101275.47
2023-02-18T16:05:13.029Z,101266.81
2023-02-18T16:07:39.212Z,101264.28
2023-02-18T16:10:05.348Z,101282.75
2023-02-18T16:12:31.492Z,101287.31
2023-02-18T16:14:57.697Z,101283.78
2023-02-18T16:17:23.871Z,101283.03
2023-02-18T16:20:03.188Z,101293.56
2023-02-18T16:22:30.375Z,101288.63
2023-02-18T16:24:56.502Z,101295.59
2023-02-18T16:27:22.663Z,101299.38
2023-02-18T16:29:48.820Z,101304.63
2023-02-18T16:32:15.042Z,101296.09
2023-02-18T16:34:41.290Z,101300.47
2023-02-18T16:37:07.479Z,101304.22
2023-02-18T16:39:33.671Z,101303.47
2023-02-18T16:41:59.840Z,101314.06
2023-02-18T16:44:25.991Z,101322.00
2023-02-18T16:46:52.219Z,101314.13
2023-02-18T16:49:18.435Z,101312.47
2023-02-18T16:51:44.580Z,101313.56
2023-02-18T16:54:13.558Z,101316.19
2023-02-18T16:56:39.688Z,101313.50
2023-02-18T16:59:05.853Z,101316.19
2023-02-18T17:01:32.061Z,101300.75
2023-02-18T17:03:58.298Z,101304.34
2023-02-18T17:06:24.546Z,101297.47
2023-02-18T17:08:50.930Z,101301.94
2023-02-18T17:11:17.072Z,101294.16
2023-02-18T17:13:43.287Z,101303.00
2023-02-18T17:16:09.764Z,101303.84
2023-02-18T17:18:36.145Z,101304.69
2023-02-18T17:21:02.317Z,101299.59
2023-02-18T17:23:31.561Z,101293.69
2023-02-18T17:25:57.734Z,101299.72
2023-02-18T17:28:23.952Z,101297.25
2023-02-18T17:30:50.138Z,101301.66
2023-02-18T17:33:16.291Z,101311.31
2023-02-18T17:35:42.435Z,101313.06
2023-02-18T17:38:08.599Z,101319.28
2023-02-18T17:40:34.743Z,101316.75
2023-02-18T17:43:00.934Z,101316.06
2023-02-18T17:45:27.152Z,101323.59
2023-02-18T17:47:53.365Z,101326.44
2023-02-18T17:50:19.547Z,101330.88
2023-02-18T17:52:45.727Z,101339.66
2023-02-18T17:55:11.892Z,101337.16
2023-02-18T17:57:38.107Z,101345.13
2023-02-18T18:00:04.288Z,101342.56
2023-02-18T18:02:30.460Z,101339.97
2023-02-18T18:04:56.616Z,101334.81
2023-02-18T18:07:22.798Z,101337.56
2023-02-18T18:09:48.986Z,101349.91
2023-02-18T18:12:15.122Z,101331.50
2023-02-18T18:14:41.275Z,101345.53
2023-02-18T18:17:07.439Z,101343.72
2023-02-18T18:19:33.610Z,101342.06
2023-02-18T18:21:59.800Z,101344.91
2023-02-18T18:24:25.941Z,101337.38
2023-02-18T18:26:52.105Z,101349.16
2023-02-18T18:29:18.230Z,101352.53
2023-02-18T18:31:44.464Z,101348.25
2023-02-18T18:34:10.632Z,101350.03
2023-02-18T18:36:36.810Z,101357.81
2023-02-18T18:39:02.958Z,101351.13
2023-02-18T18:41:29.086Z,101363.25
2023-02-18T18:43:55.213Z,101362.53
2023-02-18T18:46:21.469Z,101357.13
2023-02-18T18:48:47.672Z,101366.69
2023-02-18T18:51:13.799Z,101368.66
2023-02-18T18:53:39.954Z,101372.16
2023-02-18T18:56:06.099Z,101379.16
2023-02-18T18:58:32.346Z,101374.03
2023-02-18T19:00:58.568Z,101373.09
2023-02-18T19:03:24.767Z,101367.97
2023-02-18T19:05:50.980Z,101377.56
2023-02-18T19:08:17.156Z,101379.53
2023-02-18T19:10:43.339Z,101367.34
2023-02-18T19:13:09.527Z,101371.75
2023-02-18T19:15:35.732Z,101370.09
2023-02-18T19:18:01.985Z,101369.25
2023-02-18T19:20:28.156Z,101371.13
2023-02-18T19:22:54.366Z,101369.38
2023-02-18T19:25:20.489Z,101372.88
2023-02-18T19:27:46.636Z,101368.72
2023-02-18T19:30:12.853Z,101363.72
2023-02-18T19:32:39.049Z,101372.53
2023-02-18T19:35:05.284Z,101361.31
2023-02-18T19:37:31.446Z,101365.47
2023-02-18T19:39:57.738Z,101366.25
2023-02-18T19:42:23.917Z,101366.31
2023-02-18T19:44:50.145Z,101368.88
2023-02-18T19:47:16.297Z,101361.03
2023-02-18T19:49:42.468Z,101363.72
2023-02-18T19:52:08.646Z,101359.28
2023-02-18T19:54:34.789Z,101348.03
2023-02-18T19:57:01.108Z,101351.72
2023-02-18T19:59:27.232Z,101349.84
2023-02-18T20:01:53.504Z,101354.19
2023-02-18T20:04:19.677Z,101354.25
2023-02-18T20:06:45.874Z,101350.94
2023-02-18T20:09:12.187Z,101352.34
2023-02-18T20:11:38.362Z,101341.19
2023-02-18T20:14:06.807Z,101345.44
2023-02-18T20:16:33.024Z,101352.41
2023-02-18T20:18:59.161Z,101343.00
2023-02-18T20:21:25.580Z,101346.44
2023-02-18T20:23:51.764Z,101338.66
2023-02-18T20:26:17.952Z,101330.63
2023-02-18T20:28:44.163Z,101333.34
2023-02-18T20:31:10.882Z,101334.28
2023-02-18T20:33:39.512Z,101329.06
2023-02-18T20:36:05.904Z,101332.66
2023-02-18T20:38:32.036Z,101329.81
2023-02-18T20:41:00.373Z,101323.63
2023-02-18T20:43:27.598Z,101318.63
2023-02-18T20:45:53.796Z,101319.53
2023-02-18T20:48:20.039Z,101320.31
2023-02-18T20:50:46.232Z,101316.13
2023-02-18T20:53:12.685Z,101317.72
2023-02-18T20:55:38.842Z,101324.91
2023-02-18T20:58:06.028Z,101326.69
2023-02-18T21:00:32.261Z,101324.03
2023-02-18T21:02:58.430Z,101330.88
2023-02-18T21:05:24.760Z,101333.53
2023-02-18T21:07:50.968Z,101330.28
2023-02-18T21:10:17.483Z,101332.91
2023-02-18T21:12:44.055Z,101328.03
2023-02-18T21:15:10.446Z,101322.81
2023-02-18T21:17:36.595Z,101329.00
2023-02-18T21:20:02.753Z,101333.31
2023-02-18T21:22:28.929Z,101323.00
2023-02-18T21:24:55.126Z,101329.53
2023-02-18T21:27:21.475Z,101329.53
2023-02-18T21:29:47.653Z,101322.56
2023-02-18T21:32:13.958Z,101323.38
2023-02-18T21:34:40.184Z,101326.00
2023-02-18T21:37:06.386Z,101321.75
2023-02-18T21:39:32.575Z,101327.91
2023-02-18T21:41:58.811Z,101322.03
2023-02-18T21:44:30.019Z,101317.53
2023-02-18T21:47:02.881Z,101311.47
2023-02-18T21:49:29.093Z,101313.19
2023-02-18T21:51:55.293Z,101318.75
2023-02-18T21:54:21.493Z,101323.25
2023-02-18T21:56:47.677Z,101325.91
2023-02-18T21:59:13.824Z,101317.19
2023-02-18T22:01:39.984Z,101316.28
2023-02-18T22:04:06.133Z,101300.53
2023-02-18T22:06:45.546Z,101307.53
2023-02-18T22:09:11.752Z,101307.81
2023-02-18T22:11:37.919Z,101303.50
2023-02-18T22:14:04.132Z,101295.81
2023-02-18T22:16:31.827Z,101301.94
2023-02-18T22:18:57.995Z,101295.53
2023-02-18T22:21:24.172Z,101297.59
2023-02-18T22:23:50.386Z,101294.94
2023-02-18T22:26:16.612Z,101285.53
2023-02-18T22:28:42.953Z,101285.50
2023-02-18T22:31:09.508Z,101284.59
2023-02-18T22:33:35.936Z,101279.41
2023-02-18T22:36:02.116Z,101280.47
2023-02-18T22:38:28.373Z,101276.97
2023-02-18T22:40:54.546Z,101275.16
2023-02-18T22:43:20.732Z,101268.16
2023-02-18T22:45:47.004Z,101262.78
2023-02-18T22:48:13.209Z,101264.34
2023-02-18T22:50:40.646Z,101274.78
2023-02-18T22:53:09.109Z,101266.78
2023-02-18T22:55:35.260Z,101270.09
2023-02-18T22:58:01.434Z,101257.91
2023-02-18T23:00:27.670Z,101266.56
2023-02-18T23:02:53.839Z,101275.31
2023-02-18T23:05:19.983Z,101263.88
2023-02-18T23:07:46.188Z,101263.59
2023-02-18T23:10:12.315Z,101260.13
2023-02-18T23:12:38.434Z,101260.06
2023-02-18T23:15:04.560Z,101257.47
2023-02-18T23:17:30.755Z,101244.34
2023-02-18T23:19:56.984Z,101243.41
2023-02-18T23:22:23.165Z,101240.94
2023-02-18T23:24:49.354Z,101234.66
2023-02-18T23:27:15.501Z,101237.22
2023-02-18T23:29:41.649Z,101248.53
2023-02-18T23:32:07.823Z,101252.94
2023-02-18T23:34:33.981Z,101253.91
2023-02-18T23:37:00.161Z,101250.44
2023-02-18T23:39:28.669Z,101255.84
2023-02-18T23:41:54.813Z,101251.47
2023-02-18T23:44:20.965Z,101249.88
2023-02-18T23:46:47.122Z,101252.75
2023-02-18T23:49:13.345Z,101251.03
2023-02-18T23:51:39.518Z,101264.28
2023-02-18T23:54:05.670Z,101263.19
2023-02-18T23:56:31.814Z,101254.78
2023-02-18T23:58:57.947Z,101249.63
